sensor_id;sensor_type;location;lat;lon;timestamp;P1;durP1;ratioP1;P2;durP2;ratioP2
51612;SDS011;37694;51.748;14.326;2023-04-24T00:02:15;47.45;;;25.90;;
51612;SDS011;37694;51.748;14.326;2023-04-24T00:04:41;39.63;;;24.00;;
51612;SDS011;37694;51.748;14.326;2023-04-24T00:07:09;42.10;;;24.58;;
51612;SDS011;37694;51.748;14.326;2023-04-24T00:09:38;41.30;;;25.30;;
51612;SDS011;37694;51.748;14.326;2023-04-24T00:12:03;42.05;;;24.00;;
51612;SDS011;37694;51.748;14.326;2023-04-24T00:14:32;47.97;;;25.08;;
51612;SDS011;37694;51.748;14.326;2023-04-24T00:16:59;38.60;;;23.48;;
51612;SDS011;37694;51.748;14.326;2023-04-24T00:19:26;43.30;;;25.42;;
51612;SDS011;37694;51.748;14.326;2023-04-24T00:21:52;39.58;;;22.60;;
51612;SDS011;37694;51.748;14.326;2023-04-24T00:24:18;35.42;;;23.23;;
51612;SDS011;37694;51.748;14.326;2023-04-24T00:26:44;37.85;;;22.85;;
51612;SDS011;37694;51.748;14.326;2023-04-24T00:29:10;40.10;;;21.77;;
51612;SDS011;37694;51.748;14.326;2023-04-24T00:31:35;41.42;;;24.08;;
51612;SDS011;37694;51.748;14.326;2023-04-24T00:34:01;38.13;;;21.92;;
51612;SDS011;37694;51.748;14.326;2023-04-24T00:36:28;34.30;;;20.95;;
51612;SDS011;37694;51.748;14.326;2023-04-24T00:38:54;37.17;;;21.58;;
51612;SDS011;37694;51.748;14.326;2023-04-24T00:41:20;34.28;;;20.85;;
51612;SDS011;37694;51.748;14.326;2023-04-24T00:43:46;37.03;;;20.95;;
51612;SDS011;37694;51.748;14.326;2023-04-24T00:46:12;35.00;;;21.05;;
51612;SDS011;37694;51.748;14.326;2023-04-24T00:48:39;31.63;;;20.52;;
51612;SDS011;37694;51.748;14.326;2023-04-24T00:51:05;35.72;;;20.70;;
51612;SDS011;37694;51.748;14.326;2023-04-24T00:53:31;28.98;;;18.95;;
51612;SDS011;37694;51.748;14.326;2023-04-24T00:55:57;32.45;;;18.73;;
51612;SDS011;37694;51.748;14.326;2023-04-24T00:58:23;29.92;;;18.73;;
51612;SDS011;37694;51.748;14.326;2023-04-24T01:00:49;30.40;;;19.30;;
51612;SDS011;37694;51.748;14.326;2023-04-24T01:03:18;30.60;;;18.63;;
51612;SDS011;37694;51.748;14.326;2023-04-24T01:05:46;30.13;;;18.88;;
51612;SDS011;37694;51.748;14.326;2023-04-24T01:08:13;31.27;;;19.08;;
51612;SDS011;37694;51.748;14.326;2023-04-24T01:10:40;25.98;;;18.15;;
51612;SDS011;37694;51.748;14.326;2023-04-24T01:13:06;28.08;;;18.73;;
51612;SDS011;37694;51.748;14.326;2023-04-24T01:15:33;29.65;;;19.10;;
51612;SDS011;37694;51.748;14.326;2023-04-24T01:17:59;25.65;;;17.02;;
51612;SDS011;37694;51.748;14.326;2023-04-24T01:20:25;28.20;;;17.25;;
51612;SDS011;37694;51.748;14.326;2023-04-24T01:22:51;27.20;;;16.98;;
51612;SDS011;37694;51.748;14.326;2023-04-24T01:25:18;28.70;;;18.30;;
51612;SDS011;37694;51.748;14.326;2023-04-24T01:27:44;26.05;;;16.20;;
51612;SDS011;37694;51.748;14.326;2023-04-24T01:30:10;27.70;;;17.30;;
51612;SDS011;37694;51.748;14.326;2023-04-24T01:32:36;25.23;;;16.20;;
51612;SDS011;37694;51.748;14.326;2023-04-24T01:35:02;29.70;;;18.40;;
51612;SDS011;37694;51.748;14.326;2023-04-24T01:37:28;24.40;;;16.15;;
51612;SDS011;37694;51.748;14.326;2023-04-24T01:39:54;27.35;;;16.98;;
51612;SDS011;37694;51.748;14.326;2023-04-24T01:42:20;25.92;;;16.50;;
51612;SDS011;37694;51.748;14.326;2023-04-24T01:44:46;23.58;;;16.05;;
51612;SDS011;37694;51.748;14.326;2023-04-24T01:47:12;29.42;;;17.67;;
51612;SDS011;37694;51.748;14.326;2023-04-24T01:49:38;25.75;;;15.75;;
51612;SDS011;37694;51.748;14.326;2023-04-24T01:52:04;23.92;;;15.38;;
51612;SDS011;37694;51.748;14.326;2023-04-24T01:54:30;24.48;;;15.27;;
51612;SDS011;37694;51.748;14.326;2023-04-24T01:56:55;23.55;;;15.43;;
51612;SDS011;37694;51.748;14.326;2023-04-24T01:59:21;25.63;;;15.45;;
51612;SDS011;37694;51.748;14.326;2023-04-24T02:01:50;19.45;;;13.43;;
51612;SDS011;37694;51.748;14.326;2023-04-24T02:04:15;21.90;;;15.00;;
51612;SDS011;37694;51.748;14.326;2023-04-24T02:06:41;24.98;;;15.35;;
51612;SDS011;37694;51.748;14.326;2023-04-24T02:09:07;20.00;;;14.10;;
51612;SDS011;37694;51.748;14.326;2023-04-24T02:11:33;22.23;;;14.45;;
51612;SDS011;37694;51.748;14.326;2023-04-24T02:13:58;22.63;;;14.43;;
51612;SDS011;37694;51.748;14.326;2023-04-24T02:16:24;21.38;;;14.32;;
51612;SDS011;37694;51.748;14.326;2023-04-24T02:18:50;24.73;;;14.07;;
51612;SDS011;37694;51.748;14.326;2023-04-24T02:21:15;23.55;;;14.75;;
51612;SDS011;37694;51.748;14.326;2023-04-24T02:23:41;18.63;;;13.60;;
51612;SDS011;37694;51.748;14.326;2023-04-24T02:26:07;17.58;;;11.63;;
51612;SDS011;37694;51.748;14.326;2023-04-24T02:28:32;21.63;;;13.85;;
51612;SDS011;37694;51.748;14.326;2023-04-24T02:30:58;20.58;;;13.57;;
51612;SDS011;37694;51.748;14.326;2023-04-24T02:33:24;20.67;;;13.63;;
51612;SDS011;37694;51.748;14.326;2023-04-24T02:35:50;15.20;;;11.68;;
51612;SDS011;37694;51.748;14.326;2023-04-24T02:38:16;19.05;;;12.50;;
51612;SDS011;37694;51.748;14.326;2023-04-24T02:40:41;19.33;;;12.55;;
51612;SDS011;37694;51.748;14.326;2023-04-24T02:43:07;21.42;;;13.10;;
51612;SDS011;37694;51.748;14.326;2023-04-24T02:45:33;16.27;;;12.48;;
51612;SDS011;37694;51.748;14.326;2023-04-24T02:47:59;17.60;;;11.73;;
51612;SDS011;37694;51.748;14.326;2023-04-24T02:50:25;24.70;;;13.30;;
51612;SDS011;37694;51.748;14.326;2023-04-24T02:52:51;13.93;;;10.82;;
51612;SDS011;37694;51.748;14.326;2023-04-24T02:55:16;17.92;;;11.60;;
51612;SDS011;37694;51.748;14.326;2023-04-24T02:57:42;16.05;;;11.60;;
51612;SDS011;37694;51.748;14.326;2023-04-24T03:00:08;15.65;;;10.55;;
51612;SDS011;37694;51.748;14.326;2023-04-24T03:02:34;18.08;;;11.05;;
51612;SDS011;37694;51.748;14.326;2023-04-24T03:05:00;16.65;;;11.15;;
51612;SDS011;37694;51.748;14.326;2023-04-24T03:07:27;19.35;;;11.80;;
51612;SDS011;37694;51.748;14.326;2023-04-24T03:09:52;15.38;;;10.43;;
51612;SDS011;37694;51.748;14.326;2023-04-24T03:12:18;15.88;;;10.40;;
51612;SDS011;37694;51.748;14.326;2023-04-24T03:14:44;18.85;;;11.90;;
51612;SDS011;37694;51.748;14.326;2023-04-24T03:17:09;13.70;;;10.32;;
51612;SDS011;37694;51.748;14.326;2023-04-24T03:19:35;15.90;;;11.23;;
51612;SDS011;37694;51.748;14.326;2023-04-24T03:22:04;15.65;;;10.75;;
51612;SDS011;37694;51.748;14.326;2023-04-24T03:24:29;15.52;;;10.95;;
51612;SDS011;37694;51.748;14.326;2023-04-24T03:26:55;15.20;;;10.50;;
51612;SDS011;37694;51.748;14.326;2023-04-24T03:29:21;16.40;;;10.73;;
51612;SDS011;37694;51.748;14.326;2023-04-24T03:31:47;12.98;;;10.23;;
51612;SDS011;37694;51.748;14.326;2023-04-24T03:34:13;14.38;;;10.55;;
51612;SDS011;37694;51.748;14.326;2023-04-24T03:36:39;13.27;;;9.77;;
51612;SDS011;37694;51.748;14.326;2023-04-24T03:39:04;16.77;;;10.48;;
51612;SDS011;37694;51.748;14.326;2023-04-24T03:41:30;26.92;;;10.65;;
51612;SDS011;37694;51.748;14.326;2023-04-24T03:43:56;16.10;;;11.15;;
51612;SDS011;37694;51.748;14.326;2023-04-24T03:46:21;14.15;;;10.00;;
51612;SDS011;37694;51.748;14.326;2023-04-24T03:48:47;12.15;;;8.85;;
51612;SDS011;37694;51.748;14.326;2023-04-24T03:51:13;13.38;;;9.93;;
51612;SDS011;37694;51.748;14.326;2023-04-24T03:53:38;14.52;;;9.88;;
51612;SDS011;37694;51.748;14.326;2023-04-24T03:56:04;13.15;;;9.65;;
51612;SDS011;37694;51.748;14.326;2023-04-24T03:58:30;11.80;;;8.93;;
51612;SDS011;37694;51.748;14.326;2023-04-24T04:00:56;12.27;;;9.38;;
51612;SDS011;37694;51.748;14.326;2023-04-24T04:03:23;11.85;;;8.80;;
51612;SDS011;37694;51.748;14.326;2023-04-24T04:05:48;13.02;;;9.90;;
51612;SDS011;37694;51.748;14.326;2023-04-24T04:08:14;11.00;;;9.35;;
51612;SDS011;37694;51.748;14.326;2023-04-24T04:10:40;13.20;;;9.02;;
51612;SDS011;37694;51.748;14.326;2023-04-24T04:13:06;12.45;;;8.68;;
51612;SDS011;37694;51.748;14.326;2023-04-24T04:15:31;11.55;;;9.07;;
51612;SDS011;37694;51.748;14.326;2023-04-24T04:17:57;12.10;;;9.05;;
51612;SDS011;37694;51.748;14.326;2023-04-24T04:20:23;13.13;;;9.65;;
51612;SDS011;37694;51.748;14.326;2023-04-24T04:22:48;12.15;;;8.95;;
51612;SDS011;37694;51.748;14.326;2023-04-24T04:25:14;14.00;;;9.93;;
51612;SDS011;37694;51.748;14.326;2023-04-24T04:27:40;13.20;;;8.85;;
51612;SDS011;37694;51.748;14.326;2023-04-24T04:30:07;13.18;;;8.50;;
51612;SDS011;37694;51.748;14.326;2023-04-24T04:32:34;12.57;;;9.32;;
51612;SDS011;37694;51.748;14.326;2023-04-24T04:35:00;14.05;;;8.60;;
51612;SDS011;37694;51.748;14.326;2023-04-24T04:37:29;11.18;;;8.25;;
51612;SDS011;37694;51.748;14.326;2023-04-24T04:39:58;11.57;;;8.65;;
51612;SDS011;37694;51.748;14.326;2023-04-24T04:42:27;11.60;;;8.30;;
51612;SDS011;37694;51.748;14.326;2023-04-24T04:44:53;8.93;;;8.00;;
51612;SDS011;37694;51.748;14.326;2023-04-24T04:47:20;10.27;;;8.50;;
51612;SDS011;37694;51.748;14.326;2023-04-24T04:49:48;10.43;;;8.00;;
51612;SDS011;37694;51.748;14.326;2023-04-24T04:52:14;13.07;;;8.65;;
51612;SDS011;37694;51.748;14.326;2023-04-24T04:54:39;9.20;;;7.82;;
51612;SDS011;37694;51.748;14.326;2023-04-24T04:57:05;10.60;;;8.20;;
51612;SDS011;37694;51.748;14.326;2023-04-24T04:59:31;12.77;;;8.80;;
51612;SDS011;37694;51.748;14.326;2023-04-24T05:01:57;10.68;;;7.93;;
51612;SDS011;37694;51.748;14.326;2023-04-24T05:04:22;10.88;;;8.40;;
51612;SDS011;37694;51.748;14.326;2023-04-24T05:06:48;9.27;;;7.70;;
51612;SDS011;37694;51.748;14.326;2023-04-24T05:09:16;11.43;;;8.02;;
51612;SDS011;37694;51.748;14.326;2023-04-24T05:11:41;10.23;;;8.43;;
51612;SDS011;37694;51.748;14.326;2023-04-24T05:14:07;8.55;;;7.68;;
51612;SDS011;37694;51.748;14.326;2023-04-24T05:16:33;10.27;;;7.10;;
51612;SDS011;37694;51.748;14.326;2023-04-24T05:18:58;9.10;;;7.13;;
51612;SDS011;37694;51.748;14.326;2023-04-24T05:21:24;9.73;;;7.97;;
51612;SDS011;37694;51.748;14.326;2023-04-24T05:23:50;20.35;;;7.75;;
51612;SDS011;37694;51.748;14.326;2023-04-24T05:26:16;10.27;;;7.57;;
51612;SDS011;37694;51.748;14.326;2023-04-24T05:28:42;11.50;;;7.35;;
51612;SDS011;37694;51.748;14.326;2023-04-24T05:31:08;14.20;;;7.95;;
51612;SDS011;37694;51.748;14.326;2023-04-24T05:33:34;12.70;;;7.47;;
51612;SDS011;37694;51.748;14.326;2023-04-24T05:35:59;20.75;;;8.77;;
51612;SDS011;37694;51.748;14.326;2023-04-24T05:38:25;11.65;;;7.35;;
51612;SDS011;37694;51.748;14.326;2023-04-24T05:40:51;14.68;;;6.75;;
51612;SDS011;37694;51.748;14.326;2023-04-24T05:43:16;15.88;;;7.30;;
51612;SDS011;37694;51.748;14.326;2023-04-24T05:45:42;14.55;;;6.60;;
51612;SDS011;37694;51.748;14.326;2023-04-24T05:48:07;16.80;;;8.38;;
51612;SDS011;37694;51.748;14.326;2023-04-24T05:50:33;17.45;;;8.07;;
51612;SDS011;37694;51.748;14.326;2023-04-24T05:52:59;19.63;;;7.80;;
51612;SDS011;37694;51.748;14.326;2023-04-24T05:55:26;30.55;;;9.02;;
51612;SDS011;37694;51.748;14.326;2023-04-24T05:57:52;31.45;;;8.85;;
51612;SDS011;37694;51.748;14.326;2023-04-24T06:00:19;49.97;;;9.32;;
51612;SDS011;37694;51.748;14.326;2023-04-24T06:02:45;44.50;;;9.45;;
51612;SDS011;37694;51.748;14.326;2023-04-24T06:05:11;43.95;;;9.40;;
51612;SDS011;37694;51.748;14.326;2023-04-24T06:07:37;45.67;;;9.93;;
51612;SDS011;37694;51.748;14.326;2023-04-24T06:10:02;92.40;;;14.75;;
51612;SDS011;37694;51.748;14.326;2023-04-24T06:12:28;46.22;;;9.93;;
51612;SDS011;37694;51.748;14.326;2023-04-24T06:14:54;38.38;;;11.70;;
51612;SDS011;37694;51.748;14.326;2023-04-24T06:17:20;68.30;;;12.43;;
51612;SDS011;37694;51.748;14.326;2023-04-24T06:19:46;56.72;;;11.60;;
51612;SDS011;37694;51.748;14.326;2023-04-24T06:22:12;45.13;;;11.73;;
51612;SDS011;37694;51.748;14.326;2023-04-24T06:24:39;42.15;;;10.40;;
51612;SDS011;37694;51.748;14.326;2023-04-24T06:27:05;48.67;;;10.80;;
51612;SDS011;37694;51.748;14.326;2023-04-24T06:29:31;42.40;;;10.38;;
51612;SDS011;37694;51.748;14.326;2023-04-24T06:31:57;37.88;;;10.70;;
51612;SDS011;37694;51.748;14.326;2023-04-24T06:34:23;36.28;;;10.25;;
51612;SDS011;37694;51.748;14.326;2023-04-24T06:36:49;49.88;;;11.40;;
51612;SDS011;37694;51.748;14.326;2023-04-24T06:39:14;42.92;;;10.48;;
51612;SDS011;37694;51.748;14.326;2023-04-24T06:41:40;32.88;;;9.43;;
51612;SDS011;37694;51.748;14.326;2023-04-24T06:44:06;35.90;;;10.07;;
51612;SDS011;37694;51.748;14.326;2023-04-24T06:46:32;40.22;;;11.35;;
51612;SDS011;37694;51.748;14.326;2023-04-24T06:48:58;42.60;;;10.93;;
51612;SDS011;37694;51.748;14.326;2023-04-24T06:51:24;34.83;;;9.93;;
51612;SDS011;37694;51.748;14.326;2023-04-24T06:53:53;34.05;;;9.50;;
51612;SDS011;37694;51.748;14.326;2023-04-24T06:56:20;37.67;;;9.75;;
51612;SDS011;37694;51.748;14.326;2023-04-24T06:58:46;31.52;;;8.93;;
51612;SDS011;37694;51.748;14.326;2023-04-24T07:01:12;31.58;;;9.10;;
51612;SDS011;37694;51.748;14.326;2023-04-24T07:03:38;38.25;;;9.25;;
51612;SDS011;37694;51.748;14.326;2023-04-24T07:06:04;24.48;;;10.15;;
51612;SDS011;37694;51.748;14.326;2023-04-24T07:08:30;22.65;;;8.90;;
51612;SDS011;37694;51.748;14.326;2023-04-24T07:10:56;25.73;;;9.63;;
51612;SDS011;37694;51.748;14.326;2023-04-24T07:13:22;22.52;;;9.25;;
51612;SDS011;37694;51.748;14.326;2023-04-24T07:15:48;19.10;;;8.70;;
51612;SDS011;37694;51.748;14.326;2023-04-24T07:18:19;26.90;;;9.32;;
51612;SDS011;37694;51.748;14.326;2023-04-24T07:20:45;22.10;;;9.52;;
51612;SDS011;37694;51.748;14.326;2023-04-24T07:23:11;36.92;;;10.07;;
51612;SDS011;37694;51.748;14.326;2023-04-24T07:25:37;33.47;;;9.43;;
51612;SDS011;37694;51.748;14.326;2023-04-24T07:28:03;22.95;;;8.93;;
51612;SDS011;37694;51.748;14.326;2023-04-24T07:30:29;30.40;;;9.38;;
51612;SDS011;37694;51.748;14.326;2023-04-24T07:32:57;27.63;;;8.30;;
51612;SDS011;37694;51.748;14.326;2023-04-24T07:35:23;26.50;;;9.20;;
51612;SDS011;37694;51.748;14.326;2023-04-24T07:37:51;23.67;;;8.75;;
51612;SDS011;37694;51.748;14.326;2023-04-24T07:40:18;21.58;;;8.02;;
51612;SDS011;37694;51.748;14.326;2023-04-24T07:42:44;22.05;;;8.52;;
51612;SDS011;37694;51.748;14.326;2023-04-24T07:45:10;16.30;;;7.72;;
51612;SDS011;37694;51.748;14.326;2023-04-24T07:47:35;20.95;;;8.75;;
51612;SDS011;37694;51.748;14.326;2023-04-24T07:50:03;19.67;;;8.15;;
51612;SDS011;37694;51.748;14.326;2023-04-24T07:52:28;21.58;;;8.30;;
51612;SDS011;37694;51.748;14.326;2023-04-24T07:54:55;30.85;;;8.68;;
51612;SDS011;37694;51.748;14.326;2023-04-24T07:57:25;17.17;;;8.15;;
51612;SDS011;37694;51.748;14.326;2023-04-24T07:59:51;15.35;;;7.97;;
51612;SDS011;37694;51.748;14.326;2023-04-24T08:02:16;16.08;;;8.07;;
51612;SDS011;37694;51.748;14.326;2023-04-24T08:04:42;16.90;;;8.43;;
51612;SDS011;37694;51.748;14.326;2023-04-24T08:07:08;21.23;;;7.55;;
51612;SDS011;37694;51.748;14.326;2023-04-24T08:09:33;12.23;;;7.20;;
51612;SDS011;37694;51.748;14.326;2023-04-24T08:11:59;20.10;;;7.38;;
51612;SDS011;37694;51.748;14.326;2023-04-24T08:14:26;16.02;;;7.72;;
51612;SDS011;37694;51.748;14.326;2023-04-24T08:16:53;12.95;;;7.30;;
51612;SDS011;37694;51.748;14.326;2023-04-24T08:19:20;14.30;;;7.55;;
51612;SDS011;37694;51.748;14.326;2023-04-24T08:21:46;12.50;;;6.88;;
51612;SDS011;37694;51.748;14.326;2023-04-24T08:24:12;13.98;;;7.22;;
51612;SDS011;37694;51.748;14.326;2023-04-24T08:26:38;19.00;;;8.15;;
51612;SDS011;37694;51.748;14.326;2023-04-24T08:29:04;14.30;;;7.57;;
51612;SDS011;37694;51.748;14.326;2023-04-24T08:31:31;14.60;;;6.93;;
51612;SDS011;37694;51.748;14.326;2023-04-24T08:33:57;17.73;;;7.90;;
51612;SDS011;37694;51.748;14.326;2023-04-24T08:36:25;9.18;;;6.22;;
51612;SDS011;37694;51.748;14.326;2023-04-24T08:38:51;15.55;;;7.18;;
51612;SDS011;37694;51.748;14.326;2023-04-24T08:41:17;11.77;;;6.07;;
51612;SDS011;37694;51.748;14.326;2023-04-24T08:43:45;9.25;;;6.18;;
51612;SDS011;37694;51.748;14.326;2023-04-24T08:46:12;14.23;;;6.50;;
51612;SDS011;37694;51.748;14.326;2023-04-24T08:48:38;14.50;;;7.20;;
51612;SDS011;37694;51.748;14.326;2023-04-24T08:51:06;13.40;;;6.22;;
51612;SDS011;37694;51.748;14.326;2023-04-24T08:53:33;12.75;;;7.03;;
51612;SDS011;37694;51.748;14.326;2023-04-24T08:55:59;13.32;;;6.68;;
51612;SDS011;37694;51.748;14.326;2023-04-24T08:58:27;9.60;;;6.82;;
51612;SDS011;37694;51.748;14.326;2023-04-24T09:00:56;14.77;;;7.68;;
51612;SDS011;37694;51.748;14.326;2023-04-24T09:03:22;10.82;;;5.93;;
51612;SDS011;37694;51.748;14.326;2023-04-24T09:05:48;12.32;;;6.50;;
51612;SDS011;37694;51.748;14.326;2023-04-24T09:08:18;11.10;;;5.95;;
51612;SDS011;37694;51.748;14.326;2023-04-24T09:10:46;13.05;;;5.78;;
51612;SDS011;37694;51.748;14.326;2023-04-24T09:13:12;6.40;;;4.63;;
51612;SDS011;37694;51.748;14.326;2023-04-24T09:15:39;12.82;;;5.72;;
51612;SDS011;37694;51.748;14.326;2023-04-24T09:18:05;9.02;;;5.35;;
51612;SDS011;37694;51.748;14.326;2023-04-24T09:20:31;9.57;;;5.32;;
51612;SDS011;37694;51.748;14.326;2023-04-24T09:22:58;10.05;;;5.80;;
51612;SDS011;37694;51.748;14.326;2023-04-24T09:25:31;10.50;;;5.72;;
51612;SDS011;37694;51.748;14.326;2023-04-24T09:28:00;13.02;;;6.20;;
51612;SDS011;37694;51.748;14.326;2023-04-24T09:30:29;10.15;;;5.50;;
51612;SDS011;37694;51.748;14.326;2023-04-24T09:35:40;11.32;;;5.82;;
51612;SDS011;37694;51.748;14.326;2023-04-24T09:38:15;11.55;;;5.75;;
51612;SDS011;37694;51.748;14.326;2023-04-24T09:40:41;10.57;;;5.55;;
51612;SDS011;37694;51.748;14.326;2023-04-24T09:43:09;9.73;;;5.18;;
51612;SDS011;37694;51.748;14.326;2023-04-24T09:45:36;8.35;;;5.28;;
51612;SDS011;37694;51.748;14.326;2023-04-24T09:48:03;9.05;;;4.80;;
51612;SDS011;37694;51.748;14.326;2023-04-24T09:50:31;7.25;;;4.82;;
51612;SDS011;37694;51.748;14.326;2023-04-24T09:53:06;11.13;;;5.53;;
51612;SDS011;37694;51.748;14.326;2023-04-24T09:55:33;8.32;;;4.97;;
51612;SDS011;37694;51.748;14.326;2023-04-24T09:58:05;5.53;;;4.70;;
51612;SDS011;37694;51.748;14.326;2023-04-24T10:00:33;9.02;;;4.90;;
51612;SDS011;37694;51.748;14.326;2023-04-24T10:05:32;7.38;;;4.63;;
51612;SDS011;37694;51.748;14.326;2023-04-24T10:08:00;9.63;;;5.30;;
51612;SDS011;37694;51.748;14.326;2023-04-24T10:10:28;8.07;;;4.32;;
51612;SDS011;37694;51.748;14.326;2023-04-24T10:12:55;9.50;;;5.40;;
51612;SDS011;37694;51.748;14.326;2023-04-24T10:15:21;10.35;;;4.95;;
51612;SDS011;37694;51.748;14.326;2023-04-24T10:17:48;8.40;;;4.32;;
51612;SDS011;37694;51.748;14.326;2023-04-24T10:20:20;7.07;;;4.47;;
51612;SDS011;37694;51.748;14.326;2023-04-24T10:22:48;6.70;;;4.53;;
51612;SDS011;37694;51.748;14.326;2023-04-24T10:25:19;7.38;;;4.35;;
51612;SDS011;37694;51.748;14.326;2023-04-24T10:27:47;6.40;;;4.57;;
51612;SDS011;37694;51.748;14.326;2023-04-24T10:30:14;7.22;;;5.28;;
51612;SDS011;37694;51.748;14.326;2023-04-24T10:32:41;5.47;;;4.07;;
51612;SDS011;37694;51.748;14.326;2023-04-24T10:35:07;6.63;;;3.97;;
51612;SDS011;37694;51.748;14.326;2023-04-24T10:37:40;6.53;;;4.45;;
51612;SDS011;37694;51.748;14.326;2023-04-24T10:40:30;7.60;;;4.35;;
51612;SDS011;37694;51.748;14.326;2023-04-24T10:45:23;9.77;;;4.65;;
51612;SDS011;37694;51.748;14.326;2023-04-24T10:50:48;6.28;;;3.97;;
51612;SDS011;37694;51.748;14.326;2023-04-24T10:53:21;5.82;;;4.03;;
51612;SDS011;37694;51.748;14.326;2023-04-24T10:55:51;4.68;;;3.58;;
51612;SDS011;37694;51.748;14.326;2023-04-24T10:58:23;7.50;;;4.25;;
51612;SDS011;37694;51.748;14.326;2023-04-24T11:00:58;5.25;;;4.35;;
51612;SDS011;37694;51.748;14.326;2023-04-24T11:03:28;5.05;;;4.07;;
51612;SDS011;37694;51.748;14.326;2023-04-24T11:08:29;5.22;;;4.30;;
51612;SDS011;37694;51.748;14.326;2023-04-24T11:13:23;6.57;;;3.83;;
51612;SDS011;37694;51.748;14.326;2023-04-24T11:18:45;6.30;;;3.85;;
51612;SDS011;37694;51.748;14.326;2023-04-24T11:21:25;6.60;;;4.18;;
51612;SDS011;37694;51.748;14.326;2023-04-24T11:23:56;5.10;;;4.00;;
51612;SDS011;37694;51.748;14.326;2023-04-24T11:26:22;4.97;;;4.00;;
51612;SDS011;37694;51.748;14.326;2023-04-24T11:29:05;4.72;;;3.88;;
51612;SDS011;37694;51.748;14.326;2023-04-24T11:31:36;6.13;;;3.83;;
51612;SDS011;37694;51.748;14.326;2023-04-24T11:34:10;5.05;;;3.75;;
51612;SDS011;37694;51.748;14.326;2023-04-24T11:36:40;9.77;;;3.83;;
51612;SDS011;37694;51.748;14.326;2023-04-24T11:39:15;6.00;;;3.95;;
51612;SDS011;37694;51.748;14.326;2023-04-24T11:41:40;4.95;;;3.58;;
51612;SDS011;37694;51.748;14.326;2023-04-24T11:44:08;4.90;;;3.67;;
51612;SDS011;37694;51.748;14.326;2023-04-24T11:46:36;5.55;;;4.10;;
51612;SDS011;37694;51.748;14.326;2023-04-24T11:49:04;3.15;;;2.85;;
51612;SDS011;37694;51.748;14.326;2023-04-24T11:51:30;5.70;;;3.55;;
51612;SDS011;37694;51.748;14.326;2023-04-24T11:53:56;5.57;;;3.55;;
51612;SDS011;37694;51.748;14.326;2023-04-24T11:56:22;4.80;;;3.42;;
51612;SDS011;37694;51.748;14.326;2023-04-24T11:58:51;4.93;;;3.90;;
51612;SDS011;37694;51.748;14.326;2023-04-24T12:01:18;5.18;;;3.60;;
51612;SDS011;37694;51.748;14.326;2023-04-24T12:03:50;3.92;;;3.20;;
51612;SDS011;37694;51.748;14.326;2023-04-24T12:06:24;4.55;;;3.33;;
51612;SDS011;37694;51.748;14.326;2023-04-24T12:08:50;3.97;;;2.50;;
51612;SDS011;37694;51.748;14.326;2023-04-24T12:11:19;2.25;;;2.05;;
51612;SDS011;37694;51.748;14.326;2023-04-24T12:13:45;2.55;;;1.73;;
51612;SDS011;37694;51.748;14.326;2023-04-24T12:16:11;1.70;;;1.50;;
51612;SDS011;37694;51.748;14.326;2023-04-24T12:18:41;2.50;;;1.60;;
51612;SDS011;37694;51.748;14.326;2023-04-24T12:21:18;1.48;;;1.38;;
51612;SDS011;37694;51.748;14.326;2023-04-24T12:23:45;1.63;;;1.02;;
51612;SDS011;37694;51.748;14.326;2023-04-24T12:26:12;1.60;;;1.10;;
51612;SDS011;37694;51.748;14.326;2023-04-24T12:28:45;1.00;;;1.00;;
51612;SDS011;37694;51.748;14.326;2023-04-24T12:31:13;1.88;;;1.08;;
51612;SDS011;37694;51.748;14.326;2023-04-24T12:33:39;0.60;;;0.60;;
51612;SDS011;37694;51.748;14.326;2023-04-24T12:36:05;0.70;;;0.70;;
51612;SDS011;37694;51.748;14.326;2023-04-24T12:38:31;0.52;;;0.50;;
51612;SDS011;37694;51.748;14.326;2023-04-24T12:41:14;0.73;;;0.73;;
51612;SDS011;37694;51.748;14.326;2023-04-24T12:43:50;0.50;;;0.50;;
51612;SDS011;37694;51.748;14.326;2023-04-24T12:46:16;0.40;;;0.40;;
51612;SDS011;37694;51.748;14.326;2023-04-24T12:48:42;0.40;;;0.40;;
51612;SDS011;37694;51.748;14.326;2023-04-24T12:51:07;0.25;;;0.25;;
51612;SDS011;37694;51.748;14.326;2023-04-24T12:53:33;0.47;;;0.30;;
51612;SDS011;37694;51.748;14.326;2023-04-24T12:55:59;0.40;;;0.40;;
51612;SDS011;37694;51.748;14.326;2023-04-24T12:58:25;0.30;;;0.30;;
51612;SDS011;37694;51.748;14.326;2023-04-24T13:00:51;0.20;;;0.20;;
51612;SDS011;37694;51.748;14.326;2023-04-24T13:03:16;0.45;;;0.45;;
51612;SDS011;37694;51.748;14.326;2023-04-24T13:05:43;0.50;;;0.50;;
51612;SDS011;37694;51.748;14.326;2023-04-24T13:08:09;0.40;;;0.40;;
51612;SDS011;37694;51.748;14.326;2023-04-24T13:10:34;0.57;;;0.40;;
51612;SDS011;37694;51.748;14.326;2023-04-24T13:13:00;0.52;;;0.47;;
51612;SDS011;37694;51.748;14.326;2023-04-24T13:15:26;0.50;;;0.50;;
51612;SDS011;37694;51.748;14.326;2023-04-24T13:17:52;0.30;;;0.30;;
51612;SDS011;37694;51.748;14.326;2023-04-24T13:20:17;0.50;;;0.50;;
51612;SDS011;37694;51.748;14.326;2023-04-24T13:22:43;0.60;;;0.60;;
51612;SDS011;37694;51.748;14.326;2023-04-24T13:25:09;0.65;;;0.50;;
51612;SDS011;37694;51.748;14.326;2023-04-24T13:27:35;0.50;;;0.50;;
51612;SDS011;37694;51.748;14.326;2023-04-24T13:30:03;1.20;;;0.70;;
51612;SDS011;37694;51.748;14.326;2023-04-24T13:32:29;1.33;;;1.05;;
51612;SDS011;37694;51.748;14.326;2023-04-24T13:34:54;0.57;;;0.57;;
51612;SDS011;37694;51.748;14.326;2023-04-24T13:37:21;0.63;;;0.60;;
51612;SDS011;37694;51.748;14.326;2023-04-24T13:39:47;1.77;;;0.60;;
51612;SDS011;37694;51.748;14.326;2023-04-24T13:42:13;0.50;;;0.50;;
51612;SDS011;37694;51.748;14.326;2023-04-24T13:44:39;0.80;;;0.65;;
51612;SDS011;37694;51.748;14.326;2023-04-24T13:47:05;0.70;;;0.70;;
51612;SDS011;37694;51.748;14.326;2023-04-24T13:49:31;0.47;;;0.47;;
51612;SDS011;37694;51.748;14.326;2023-04-24T13:51:56;0.50;;;0.50;;
51612;SDS011;37694;51.748;14.326;2023-04-24T13:54:22;0.70;;;0.70;;
51612;SDS011;37694;51.748;14.326;2023-04-24T13:56:50;0.60;;;0.60;;
51612;SDS011;37694;51.748;14.326;2023-04-24T13:59:17;0.55;;;0.55;;
51612;SDS011;37694;51.748;14.326;2023-04-24T14:01:43;0.50;;;0.50;;
51612;SDS011;37694;51.748;14.326;2023-04-24T14:04:10;0.50;;;0.50;;
51612;SDS011;37694;51.748;14.326;2023-04-24T14:06:36;1.42;;;0.60;;
51612;SDS011;37694;51.748;14.326;2023-04-24T14:09:01;0.80;;;0.47;;
51612;SDS011;37694;51.748;14.326;2023-04-24T14:11:27;0.47;;;0.47;;
51612;SDS011;37694;51.748;14.326;2023-04-24T14:13:54;0.68;;;0.68;;
51612;SDS011;37694;51.748;14.326;2023-04-24T14:16:21;3.83;;;1.02;;
51612;SDS011;37694;51.748;14.326;2023-04-24T14:18:47;1.90;;;0.70;;
51612;SDS011;37694;51.748;14.326;2023-04-24T14:21:13;2.03;;;1.05;;
51612;SDS011;37694;51.748;14.326;2023-04-24T14:23:38;6.43;;;0.80;;
51612;SDS011;37694;51.748;14.326;2023-04-24T14:26:04;7.95;;;0.80;;
51612;SDS011;37694;51.748;14.326;2023-04-24T14:28:30;4.10;;;0.80;;
51612;SDS011;37694;51.748;14.326;2023-04-24T14:30:55;11.98;;;0.93;;
51612;SDS011;37694;51.748;14.326;2023-04-24T14:33:21;2.00;;;0.80;;
51612;SDS011;37694;51.748;14.326;2023-04-24T14:35:47;4.45;;;1.00;;
51612;SDS011;37694;51.748;14.326;2023-04-24T14:38:13;2.65;;;0.70;;